Time;durP1;ratioP1;P1;durP2;ratioP2;P2;SDS_P1;SDS_P2;PMS_P1;PMS_P2;Temp;Humidity;BMP_temperature;BMP_pressure;BME280_temperature;BME280_humidity;BME280_pressure;Samples;Min_cycle;Max_cycle;Signal;HPM_P1;HPM_P2
2022/04/14 00:01:00;;;;;;;11.23;2.80;;;13.00;64.10;;;;;;5054779;28;20044;-72
2022/04/14 00:03:26;;;;;;;10.18;2.67;;;13.00;64.10;;;;;;5055950;28;20029;-73
2022/04/14 00:05:51;;;;;;;10.38;2.75;;;13.00;64.00;;;;;;5055787;28;20056;-73
2022/04/14 00:08:17;;;;;;;7.18;2.60;;;13.00;64.00;;;;;;5055897;28;20021;-73
2022/04/14 00:10:42;;;;;;;9.02;2.92;;;12.90;63.90;;;;;;5055884;28;20024;-77
2022/04/14 00:13:08;;;;;;;7.78;2.58;;;12.90;64.30;;;;;;5055898;28;20074;-77
2022/04/14 00:15:34;;;;;;;11.27;3.30;;;12.80;64.50;;;;;;5056033;28;20083;-73
2022/04/14 00:18:00;;;;;;;7.80;2.97;;;12.80;64.90;;;;;;5056010;28;20494;-73
2022/04/14 00:20:25;;;;;;;9.57;3.20;;;12.70;65.10;;;;;;5055639;28;20431;-74
2022/04/14 00:22:51;;;;;;;10.45;2.72;;;12.70;65.30;;;;;;5063857;28;20052;-74
2022/04/14 00:25:16;;;;;;;6.78;2.70;;;12.80;64.90;;;;;;5057484;28;20033;-73
2022/04/14 00:27:42;;;;;;;7.40;2.78;;;12.80;64.70;;;;;;5055555;28;20554;-73
2022/04/14 00:30:10;;;;;;;11.50;2.67;;;12.80;64.60;;;;;;5055343;28;20115;-73
2022/04/14 00:32:35;;;;;;;10.00;2.90;;;12.70;64.70;;;;;;5055471;28;20463;-73
2022/04/14 00:35:01;;;;;;;11.45;2.83;;;12.70;64.90;;;;;;5055404;28;20054;-73
2022/04/14 00:37:26;;;;;;;13.73;3.10;;;12.70;65.00;;;;;;5055174;28;20099;-73
2022/04/14 00:39:52;;;;;;;6.90;2.28;;;12.70;65.10;;;;;;5055364;28;20073;-73
2022/04/14 00:42:17;;;;;;;8.02;2.30;;;12.70;65.40;;;;;;5054788;28;20493;-73
2022/04/14 00:44:43;;;;;;;10.57;2.60;;;12.60;65.40;;;;;;5055225;28;20025;-73
2022/04/14 00:47:10;;;;;;;10.75;2.60;;;12.70;65.60;;;;;;5054002;28;20013;-73
2022/04/14 00:49:36;;;;;;;12.23;2.80;;;12.60;65.80;;;;;;5055184;28;20021;-74
2022/04/14 00:52:03;;;;;;;7.88;2.58;;;12.50;66.30;;;;;;5055104;28;20386;-73
2022/04/14 00:54:30;;;;;;;10.57;3.05;;;12.50;66.50;;;;;;5054956;28;20032;-73
2022/04/14 00:56:58;;;;;;;6.88;2.70;;;12.50;66.40;;;;;;5055096;28;20111;-73
2022/04/14 00:59:24;;;;;;;8.90;2.95;;;12.60;66.30;;;;;;5054539;28;20079;-73
2022/04/14 01:01:50;;;;;;;11.18;3.25;;;12.50;66.70;;;;;;5055011;28;20421;-78
2022/04/14 01:04:16;;;;;;;14.30;2.85;;;12.50;66.60;;;;;;5054880;28;20052;-73
2022/04/14 01:06:43;;;;;;;16.25;3.33;;;12.50;66.60;;;;;;5054842;28;20037;-73
2022/04/14 01:09:16;;;;;;;9.95;2.95;;;12.50;66.60;;;;;;5054808;28;20059;-73
2022/04/14 01:11:46;;;;;;;10.90;3.20;;;12.50;66.90;;;;;;5054884;28;20095;-73
2022/04/14 01:14:32;;;;;;;10.60;2.47;;;12.50;66.80;;;;;;5054737;28;20021;-73
2022/04/14 01:17:01;;;;;;;8.02;2.83;;;12.60;66.80;;;;;;5054732;28;20060;-73
2022/04/14 01:19:28;;;;;;;11.25;3.20;;;12.50;66.80;;;;;;5054558;28;20033;-73
2022/04/14 01:22:01;;;;;;;8.30;3.30;;;12.40;67.10;;;;;;5054658;28;20375;-78
2022/04/14 01:24:28;;;;;;;11.00;2.53;;;12.40;67.50;;;;;;5054555;28;20483;-79
2022/04/14 01:26:55;;;;;;;8.77;2.85;;;12.30;68.00;;;;;;5054438;28;20025;-73
2022/04/14 01:29:23;;;;;;;7.22;2.90;;;12.30;68.10;;;;;;5054416;28;20017;-73
2022/04/14 01:31:51;;;;;;;6.13;2.55;;;12.30;68.00;;;;;;5054189;28;20471;-73
2022/04/14 01:34:17;;;;;;;18.77;2.90;;;12.30;68.00;;;;;;5054330;28;20025;-73
2022/04/14 01:36:43;;;;;;;9.18;2.83;;;12.30;68.30;;;;;;5054330;28;20475;-73
2022/04/14 01:39:10;;;;;;;6.53;2.80;;;12.30;68.20;;;;;;5054178;28;20395;-74
2022/04/14 01:41:37;;;;;;;7.72;2.75;;;12.30;68.20;;;;;;5054105;28;20112;-75
2022/04/14 01:44:02;;;;;;;9.95;3.05;;;12.30;68.10;;;;;;5054251;28;20163;-75
2022/04/14 01:46:28;;;;;;;7.43;2.55;;;12.20;67.80;;;;;;5054034;28;20107;-74
2022/04/14 01:48:54;;;;;;;13.65;3.03;;;12.30;67.70;;;;;;5054169;28;20021;-77
2022/04/14 01:51:20;;;;;;;10.27;3.10;;;12.30;67.70;;;;;;5054111;28;20114;-78
2022/04/14 01:53:45;;;;;;;6.35;2.65;;;12.30;67.80;;;;;;5053875;28;20063;-74
2022/04/14 01:56:11;;;;;;;10.80;3.25;;;12.20;68.30;;;;;;5053820;28;20107;-74
2022/04/14 01:58:37;;;;;;;10.32;3.05;;;12.10;69.70;;;;;;5053806;28;20106;-73
2022/04/14 02:01:02;;;;;;;8.80;3.00;;;12.10;68.70;;;;;;5053546;28;20043;-73
2022/04/14 02:03:28;;;;;;;11.60;2.90;;;12.10;68.90;;;;;;5052529;28;20364;-74
2022/04/14 02:05:53;;;;;;;11.50;3.00;;;12.00;69.10;;;;;;5053610;28;20384;-78
2022/04/14 02:08:19;;;;;;;10.60;2.95;;;12.00;69.40;;;;;;5053644;28;20025;-78
2022/04/14 02:10:45;;;;;;;12.77;2.58;;;12.00;69.40;;;;;;5059828;28;20494;-79
2022/04/14 02:13:10;;;;;;;10.13;2.53;;;12.00;69.50;;;;;;5053710;28;20024;-79
2022/04/14 02:15:36;;;;;;;8.13;2.95;;;12.00;69.50;;;;;;5053517;28;20086;-79
2022/04/14 02:18:01;;;;;;;9.20;2.63;;;12.00;69.30;;;;;;5053563;28;20035;-78
2022/04/14 02:20:27;;;;;;;7.05;3.10;;;12.00;69.20;;;;;;5053282;28;20079;-77
2022/04/14 02:22:52;;;;;;;7.65;2.65;;;12.10;69.30;;;;;;5053585;28;20029;-78
2022/04/14 02:25:18;;;;;;;6.90;2.60;;;12.10;69.30;;;;;;5052066;28;20425;-77
2022/04/14 02:27:43;;;;;;;10.02;2.97;;;12.00;69.40;;;;;;5053574;28;20356;-78
2022/04/14 02:30:09;;;;;;;10.82;3.38;;;12.00;69.60;;;;;;5053231;28;20029;-76
2022/04/14 02:32:35;;;;;;;13.52;5.50;;;12.00;69.90;;;;;;5053456;28;20386;-79
2022/04/14 02:35:02;;;;;;;8.80;3.55;;;12.00;70.00;;;;;;5053172;28;20021;-78
2022/04/14 02:37:27;;;;;;;11.35;3.33;;;11.90;70.60;;;;;;5053455;28;20017;-78
2022/04/14 02:39:53;;;;;;;9.93;3.75;;;11.70;71.10;;;;;;5053214;28;20064;-78
2022/04/14 02:42:18;;;;;;;9.80;2.97;;;11.60;71.40;;;;;;5053364;28;20072;-78
2022/04/14 02:44:44;;;;;;;13.82;4.55;;;11.60;71.50;;;;;;5052733;28;20640;-78
2022/04/14 02:47:09;;;;;;;9.27;4.18;;;11.50;71.40;;;;;;5051835;28;20036;-77
2022/04/14 02:49:36;;;;;;;7.32;4.15;;;11.60;71.20;;;;;;5053109;28;20081;-78
2022/04/14 02:52:02;;;;;;;10.13;4.75;;;11.60;71.20;;;;;;5053138;28;20021;-78
2022/04/14 02:54:27;;;;;;;12.65;4.93;;;11.60;70.90;;;;;;5053088;28;20028;-78
2022/04/14 02:56:53;;;;;;;12.73;4.82;;;11.50;71.20;;;;;;5052980;28;20064;-78
2022/04/14 02:59:18;;;;;;;18.48;5.32;;;11.50;71.50;;;;;;5053061;28;20025;-78
2022/04/14 03:01:44;;;;;;;10.90;4.30;;;11.40;71.90;;;;;;5053000;28;20029;-77
2022/04/14 03:04:09;;;;;;;11.18;5.00;;;11.40;72.10;;;;;;5051794;28;20463;-77
2022/04/14 03:06:35;;;;;;;14.15;5.25;;;11.40;72.10;;;;;;5052702;28;20045;-77
2022/04/14 03:09:01;;;;;;;12.57;5.38;;;11.40;72.20;;;;;;5052978;28;20017;-78
2022/04/14 03:11:26;;;;;;;13.13;4.93;;;11.40;71.90;;;;;;5052783;28;20032;-78
2022/04/14 03:13:52;;;;;;;8.55;3.75;;;11.40;71.90;;;;;;5052744;28;20025;-77
2022/04/14 03:16:17;;;;;;;11.98;3.65;;;11.40;72.10;;;;;;5052908;28;20029;-78
2022/04/14 03:18:43;;;;;;;10.63;3.80;;;11.40;72.90;;;;;;5052757;28;20021;-77
2022/04/14 03:21:11;;;;;;;10.98;2.97;;;11.40;72.50;;;;;;5051219;28;20128;-77
2022/04/14 03:23:38;;;;;;;7.57;3.15;;;11.20;73.20;;;;;;5055887;28;20013;-77
2022/04/14 03:26:03;;;;;;;10.30;3.35;;;11.20;73.50;;;;;;5056642;28;20029;-77
2022/04/14 03:28:29;;;;;;;8.88;3.03;;;11.20;73.50;;;;;;5056627;28;20020;-78
2022/04/14 03:30:55;;;;;;;7.57;3.20;;;11.20;73.40;;;;;;5056735;28;20029;-76
2022/04/14 03:33:20;;;;;;;8.10;3.35;;;11.30;73.20;;;;;;5056534;28;20091;-76
2022/04/14 03:35:46;;;;;;;14.63;4.10;;;11.30;72.90;;;;;;5056597;28;20021;-76
2022/04/14 03:38:12;;;;;;;9.60;3.63;;;11.30;72.90;;;;;;5056504;28;20029;-77
2022/04/14 03:40:37;;;;;;;8.82;3.08;;;11.40;72.80;;;;;;5056119;28;20060;-77
2022/04/14 03:43:03;;;;;;;9.48;2.63;;;11.40;72.40;;;;;;5056395;28;20028;-76
2022/04/14 03:45:28;;;;;;;6.68;2.80;;;11.40;72.10;;;;;;5056210;28;20029;-77
2022/04/14 03:47:54;;;;;;;12.82;3.30;;;11.40;71.80;;;;;;5056162;28;20025;-76
2022/04/14 03:50:19;;;;;;;11.43;3.00;;;11.40;71.70;;;;;;5056315;28;20110;-78
2022/04/14 03:52:45;;;;;;;8.07;3.10;;;11.50;71.80;;;;;;5056080;28;20110;-78
2022/04/14 03:55:10;;;;;;;5.68;2.60;;;11.40;71.60;;;;;;5055852;28;20029;-77
2022/04/14 03:57:36;;;;;;;10.27;3.00;;;11.40;71.70;;;;;;5055801;28;20029;-76
2022/04/14 04:00:02;;;;;;;5.63;2.97;;;11.30;72.10;;;;;;5055947;28;20068;-76
2022/04/14 04:02:28;;;;;;;7.18;2.63;;;11.30;72.20;;;;;;5055996;28;20464;-76
2022/04/14 04:04:53;;;;;;;9.55;3.08;;;11.20;72.20;;;;;;5055630;28;20052;-78
2022/04/14 04:07:19;;;;;;;9.95;3.08;;;11.20;72.50;;;;;;5055949;28;20032;-78
2022/04/14 04:09:44;;;;;;;12.27;3.15;;;11.10;72.50;;;;;;5055752;28;20495;-78
2022/04/14 04:12:10;;;;;;;7.93;3.25;;;11.10;72.60;;;;;;5055633;28;20372;-77
2022/04/14 04:14:36;;;;;;;9.68;3.33;;;11.10;72.70;;;;;;5055637;28;20099;-78
2022/04/14 04:17:01;;;;;;;12.60;3.20;;;11.10;72.80;;;;;;5055712;28;20064;-78
2022/04/14 04:19:27;;;;;;;9.10;3.70;;;11.10;72.70;;;;;;5054363;28;20025;-78
2022/04/14 04:21:53;;;;;;;12.75;3.25;;;11.10;72.60;;;;;;5055596;28;20059;-77
2022/04/14 04:24:18;;;;;;;8.90;3.88;;;11.10;72.70;;;;;;5055529;28;20405;-76
2022/04/14 04:26:44;;;;;;;7.43;3.30;;;11.00;72.70;;;;;;5055534;28;20498;-78
2022/04/14 04:29:09;;;;;;;7.20;3.15;;;11.00;72.80;;;;;;5054120;28;20036;-77
2022/04/14 04:31:35;;;;;;;9.18;3.47;;;11.00;72.70;;;;;;5055259;28;20433;-76
2022/04/14 04:34:00;;;;;;;9.63;3.78;;;11.00;72.60;;;;;;5054428;28;20411;-78
2022/04/14 04:36:26;;;;;;;7.25;3.38;;;10.90;72.90;;;;;;5055384;28;20060;-78
2022/04/14 04:38:51;;;;;;;10.27;3.30;;;10.80;73.30;;;;;;5055326;28;20029;-78
2022/04/14 04:41:17;;;;;;;10.30;3.28;;;10.80;73.70;;;;;;5055373;28;20055;-79
2022/04/14 04:43:42;;;;;;;13.85;3.65;;;10.80;74.00;;;;;;5055362;28;20082;-78
2022/04/14 04:46:08;;;;;;;6.18;3.28;;;10.70;74.30;;;;;;5053949;28;20029;-78
2022/04/14 04:48:34;;;;;;;7.47;3.83;;;10.60;74.40;;;;;;5055207;28;20040;-76
2022/04/14 04:51:00;;;;;;;10.55;3.78;;;10.60;74.40;;;;;;5054947;28;20483;-77
2022/04/14 04:53:25;;;;;;;7.90;3.40;;;10.60;74.30;;;;;;5055205;28;20025;-77
2022/04/14 04:55:51;;;;;;;9.18;3.47;;;10.70;74.40;;;;;;5054864;28;20047;-77
2022/04/14 04:58:16;;;;;;;12.27;3.63;;;10.80;74.40;;;;;;5055154;28;20025;-76
2022/04/14 05:00:44;;;;;;;9.82;3.80;;;10.90;73.90;;;;;;5054901;28;20082;-77
2022/04/14 05:03:10;;;;;;;11.35;3.60;;;10.90;73.50;;;;;;5053678;28;20021;-77
2022/04/14 05:05:37;;;;;;;12.70;4.18;;;10.90;73.20;;;;;;5054738;28;20075;-77
2022/04/14 05:08:05;;;;;;;9.60;3.58;;;10.80;73.70;;;;;;5054736;28;20056;-76
2022/04/14 05:10:31;;;;;;;12.82;4.22;;;10.80;74.00;;;;;;5054637;28;20474;-76
2022/04/14 05:12:57;;;;;;;14.50;3.60;;;10.80;74.30;;;;;;5054695;28;20029;-77
2022/04/14 05:15:23;;;;;;;11.70;4.47;;;10.70;74.70;;;;;;5054828;28;20036;-75
2022/04/14 05:17:48;;;;;;;10.57;3.70;;;10.70;75.20;;;;;;5054647;28;20029;-75
2022/04/14 05:20:14;;;;;;;14.52;4.32;;;10.70;75.00;;;;;;5054402;28;20036;-76
2022/04/14 05:22:39;;;;;;;14.77;4.82;;;10.80;74.80;;;;;;5054685;28;20044;-74
2022/04/14 05:25:05;;;;;;;7.57;3.45;;;10.80;74.70;;;;;;5052611;28;20021;-74
2022/04/14 05:27:31;;;;;;;10.65;4.03;;;10.90;74.50;;;;;;5054233;28;20379;-76
2022/04/14 05:29:56;;;;;;;14.02;4.43;;;11.00;74.20;;;;;;5054239;28;20025;-77
2022/04/14 05:32:22;;;;;;;8.65;3.75;;;11.00;74.00;;;;;;5054280;28;20033;-77
2022/04/14 05:34:47;;;;;;;10.77;4.18;;;11.20;73.70;;;;;;5054178;28;20104;-74
2022/04/14 05:37:13;;;;;;;13.82;4.57;;;11.20;73.30;;;;;;5054071;28;20089;-72
2022/04/14 05:39:38;;;;;;;8.27;3.65;;;11.30;73.10;;;;;;5054094;28;20086;-73
2022/04/14 05:42:04;;;;;;;11.70;4.30;;;11.40;72.80;;;;;;5053763;28;20058;-74
2022/04/14 05:44:30;;;;;;;13.80;3.85;;;11.30;72.80;;;;;;5053756;28;20025;-73
2022/04/14 05:46:55;;;;;;;11.07;4.40;;;11.30;73.00;;;;;;5052709;28;20143;-73
2022/04/14 05:49:21;;;;;;;11.82;4.35;;;11.30;73.20;;;;;;5053712;28;20029;-72
2022/04/14 05:51:47;;;;;;;8.38;3.95;;;11.40;73.80;;;;;;5053589;28;20076;-72
2022/04/14 05:54:14;;;;;;;9.38;4.65;;;11.50;72.70;;;;;;5053712;28;20024;-74
2022/04/14 05:56:40;;;;;;;12.85;4.65;;;11.60;72.30;;;;;;5053658;28;20025;-71
2022/04/14 05:59:06;;;;;;;11.75;4.35;;;11.60;72.30;;;;;;5052287;28;20044;-73
2022/04/14 06:01:31;;;;;;;15.80;4.28;;;11.70;72.30;;;;;;5053460;28;20025;-74
2022/04/14 06:03:57;;;;;;;8.43;3.72;;;11.80;72.10;;;;;;5053413;28;20110;-73
2022/04/14 06:06:22;;;;;;;6.68;3.47;;;11.90;71.90;;;;;;5053138;28;20080;-73
2022/04/14 06:08:48;;;;;;;13.90;4.65;;;12.00;72.40;;;;;;5053589;28;20023;-73
2022/04/14 06:11:13;;;;;;;10.50;4.38;;;12.20;71.40;;;;;;5053354;28;20029;-72
2022/04/14 06:13:40;;;;;;;8.82;3.83;;;12.30;71.00;;;;;;5053173;28;20021;-72
2022/04/14 06:16:05;;;;;;;7.57;4.00;;;12.40;70.60;;;;;;5053105;28;20459;-72
2022/04/14 06:18:31;;;;;;;10.00;3.95;;;12.60;70.20;;;;;;5053298;28;20116;-71
2022/04/14 06:20:56;;;;;;;9.45;4.22;;;12.70;69.70;;;;;;5053163;28;20060;-71
2022/04/14 06:23:22;;;;;;;7.55;3.92;;;12.90;69.20;;;;;;5053082;28;20033;-72
2022/04/14 06:25:49;;;;;;;8.80;4.00;;;13.00;68.80;;;;;;5053044;28;20155;-72
2022/04/14 06:28:17;;;;;;;7.63;3.63;;;13.10;68.50;;;;;;5052889;28;20052;-71
2022/04/14 06:30:42;;;;;;;6.88;3.60;;;13.20;68.20;;;;;;5053037;28;20082;-74
2022/04/14 06:33:08;;;;;;;7.72;3.50;;;13.20;68.20;;;;;;5052830;28;20454;-72
2022/04/14 06:35:33;;;;;;;8.80;3.25;;;13.30;68.00;;;;;;5051757;28;20036;-73
2022/04/14 06:37:59;;;;;;;9.85;4.07;;;13.40;67.90;;;;;;5053125;28;20146;-73
2022/04/14 06:40:26;;;;;;;8.18;3.70;;;13.50;67.80;;;;;;5053356;28;20024;-74
2022/04/14 06:42:51;;;;;;;12.65;4.07;;;13.50;67.70;;;;;;5052798;28;20382;-75
2022/04/14 06:45:17;;;;;;;14.30;4.13;;;13.70;67.70;;;;;;5052720;28;20103;-74
2022/04/14 06:47:43;;;;;;;12.35;3.70;;;13.80;67.30;;;;;;5052980;28;20029;-73
2022/04/14 06:50:09;;;;;;;7.00;3.40;;;14.00;67.00;;;;;;5052772;28;20475;-72
2022/04/14 06:52:38;;;;;;;7.72;3.60;;;14.20;66.40;;;;;;5052742;28;20092;-76
2022/04/14 06:55:04;;;;;;;14.05;4.18;;;14.30;65.90;;;;;;5052727;28;20021;-76
2022/04/14 06:57:29;;;;;;;12.98;3.58;;;14.50;65.40;;;;;;5052382;28;20028;-73
2022/04/14 06:59:55;;;;;;;12.68;3.35;;;14.60;65.00;;;;;;5052477;28;20475;-73
2022/04/14 07:02:21;;;;;;;11.40;3.70;;;14.70;64.60;;;;;;5052554;28;20029;-73
2022/04/14 07:04:46;;;;;;;14.05;4.90;;;14.90;64.30;;;;;;5052426;28;20123;-73
2022/04/14 07:07:12;;;;;;;13.20;5.63;;;15.00;64.00;;;;;;5052567;28;20033;-73
2022/04/14 07:09:37;;;;;;;18.05;5.07;;;15.00;64.50;;;;;;5052510;28;20029;-74
2022/04/14 07:12:04;;;;;;;14.55;5.28;;;14.90;65.20;;;;;;5052497;28;20495;-75
2022/04/14 07:14:30;;;;;;;9.65;4.18;;;15.10;65.20;;;;;;5052422;28;20108;-74
2022/04/14 07:17:00;;;;;;;8.23;4.20;;;15.20;65.10;;;;;;5052416;28;20028;-72
2022/04/14 07:19:26;;;;;;;15.50;4.80;;;15.40;64.70;;;;;;5052391;28;20025;-72
2022/04/14 07:21:53;;;;;;;18.65;5.90;;;15.60;64.00;;;;;;5052317;28;20112;-75
2022/04/14 07:24:19;;;;;;;13.43;4.32;;;15.80;63.70;;;;;;5052564;28;20025;-76
2022/04/14 07:26:45;;;;;;;7.20;3.75;;;16.00;62.90;;;;;;5052454;28;20032;-75
2022/04/14 07:29:11;;;;;;;10.32;4.50;;;16.10;61.80;;;;;;5052299;28;20107;-77
2022/04/14 07:31:37;;;;;;;10.98;4.07;;;16.40;60.70;;;;;;5052556;28;20112;-77
2022/04/14 07:34:05;;;;;;;10.38;3.88;;;16.60;59.80;;;;;;5052225;28;20036;-77
2022/04/14 07:36:30;;;;;;;8.30;4.05;;;16.80;59.30;;;;;;5052324;28;20049;-76
2022/04/14 07:38:56;;;;;;;9.40;4.00;;;17.10;58.60;;;;;;5052068;28;20099;-77
2022/04/14 07:41:21;;;;;;;12.07;4.03;;;17.30;57.30;;;;;;5052091;28;20079;-76
2022/04/14 07:43:47;;;;;;;14.30;4.40;;;17.40;56.80;;;;;;5052238;28;20037;-76
2022/04/14 07:46:12;;;;;;;13.45;4.00;;;17.60;56.00;;;;;;5050978;28;20036;-74
2022/04/14 07:48:38;;;;;;;12.43;4.57;;;17.70;55.60;;;;;;5052177;28;20025;-75
2022/04/14 07:51:04;;;;;;;21.35;7.40;;;17.80;54.80;;;;;;5051831;28;20060;-75
2022/04/14 07:53:30;;;;;;;12.18;7.25;;;17.80;54.50;;;;;;5052042;28;20075;-76
2022/04/14 07:55:57;;;;;;;19.30;7.78;;;17.70;55.30;;;;;;5051848;28;20036;-75
2022/04/14 07:58:22;;;;;;;17.67;7.70;;;17.50;57.00;;;;;;5052456;28;20029;-76
2022/04/14 08:00:50;;;;;;;15.32;7.03;;;17.60;56.80;;;;;;5052336;28;20112;-75
2022/04/14 08:03:16;;;;;;;20.60;8.65;;;17.70;56.50;;;;;;5050402;28;20075;-74
2022/04/14 08:05:46;;;;;;;15.90;6.95;;;17.70;56.60;;;;;;5051997;28;20061;-74
2022/04/14 08:08:17;;;;;;;16.08;6.60;;;17.70;56.50;;;;;;5051939;28;20018;-74
2022/04/14 08:10:44;;;;;;;15.10;6.68;;;17.80;56.80;;;;;;5054998;28;20102;-74
2022/04/14 08:13:11;;;;;;;13.88;6.60;;;18.00;55.70;;;;;;5055804;28;20063;-75
2022/04/14 08:15:38;;;;;;;18.52;9.02;;;18.20;55.40;;;;;;5055661;28;20029;-76
2022/04/14 08:18:06;;;;;;;14.23;6.35;;;18.30;54.50;;;;;;5054916;28;20055;-76
2022/04/14 08:20:32;;;;;;;16.35;7.68;;;18.50;54.00;;;;;;5054357;28;20441;-74
2022/04/14 08:22:59;;;;;;;17.58;7.78;;;18.70;53.30;;;;;;5055569;28;20026;-74
2022/04/14 08:25:33;;;;;;;13.38;6.57;;;18.80;52.80;;;;;;5055670;28;20033;-75
2022/04/14 08:28:00;;;;;;;19.33;8.75;;;19.00;52.70;;;;;;5055221;28;20029;-75
2022/04/14 08:30:28;;;;;;;16.70;8.40;;;19.00;52.70;;;;;;5055166;28;20175;-73
2022/04/14 08:32:55;;;;;;;20.17;10.63;;;18.80;52.80;;;;;;5053389;28;20063;-73
2022/04/14 08:35:21;;;;;;;19.17;10.45;;;18.50;54.00;;;;;;5053738;28;20035;-73
2022/04/14 08:37:48;;;;;;;24.92;10.73;;;18.10;55.70;;;;;;5053802;28;20024;-73
2022/04/14 08:40:16;;;;;;;22.90;11.50;;;18.10;55.70;;;;;;5053481;28;20188;-73
2022/04/14 08:42:49;;;;;;;14.48;8.38;;;18.10;56.80;;;;;;5053796;28;20439;-74
2022/04/14 08:45:16;;;;;;;24.38;13.13;;;18.10;56.20;;;;;;5053418;28;20372;-74
2022/04/14 08:47:42;;;;;;;24.50;12.70;;;18.00;55.80;;;;;;5053741;28;20048;-73
2022/04/14 08:50:13;;;;;;;21.33;12.15;;;17.80;56.40;;;;;;5053667;28;20036;-74
2022/04/14 08:52:40;;;;;;;24.92;11.02;;;17.80;56.80;;;;;;5053566;28;20036;-74
2022/04/14 08:55:14;;;;;;;20.63;10.57;;;17.90;56.30;;;;;;5053544;28;20107;-75
2022/04/14 08:57:41;;;;;;;16.27;8.23;;;18.10;56.40;;;;;;5053819;28;20048;-74
2022/04/14 09:00:10;;;;;;;26.42;11.95;;;18.30;56.60;;;;;;5052720;28;20029;-74
2022/04/14 09:02:36;;;;;;;20.05;10.80;;;18.40;54.80;;;;;;5053494;28;20479;-74
2022/04/14 09:05:02;;;;;;;17.23;11.13;;;18.60;54.50;;;;;;5053152;28;20052;-74
2022/04/14 09:07:28;;;;;;;23.15;10.98;;;18.50;54.30;;;;;;5053626;28;20021;-74
2022/04/14 09:09:54;;;;;;;25.08;12.15;;;18.60;54.20;;;;;;5053487;28;20078;-74
2022/04/14 09:12:20;;;;;;;20.05;9.63;;;18.70;53.70;;;;;;5053046;28;20490;-74
2022/04/14 09:14:46;;;;;;;19.40;9.88;;;18.80;54.10;;;;;;5053321;28;20053;-74
2022/04/14 09:17:12;;;;;;;14.57;8.95;;;19.00;53.60;;;;;;5052918;28;20036;-78
2022/04/14 09:19:38;;;;;;;21.90;9.68;;;19.20;53.30;;;;;;5053018;28;20119;-73
2022/04/14 09:22:08;;;;;;;25.08;11.60;;;19.40;52.20;;;;;;5052689;28;20092;-73
2022/04/14 09:24:51;;;;;;;19.40;10.02;;;19.50;50.90;;;;;;5053230;28;20052;-74
2022/04/14 09:27:32;;;;;;;15.70;10.00;;;19.50;52.00;;;;;;5053030;28;20032;-74
2022/04/14 09:30:00;;;;;;;19.13;9.35;;;19.40;51.40;;;;;;5052843;28;20029;-74
2022/04/14 09:32:37;;;;;;;15.43;9.18;;;19.40;50.50;;;;;;5052522;28;20549;-74
2022/04/14 09:35:23;;;;;;;22.95;10.57;;;19.50;50.10;;;;;;5052818;28;20493;-74
2022/04/14 09:38:03;;;;;;;17.38;7.82;;;19.50;50.10;;;;;;5052083;28;20037;-75
2022/04/14 09:40:30;;;;;;;15.52;7.90;;;19.70;50.40;;;;;;5052943;28;20490;-74
2022/04/14 09:42:56;;;;;;;18.77;9.85;;;20.00;49.50;;;;;;5052467;28;20501;-76
2022/04/14 09:45:25;;;;;;;13.77;7.00;;;20.20;48.80;;;;;;5052606;28;20029;-75
2022/04/14 09:47:52;;;;;;;18.13;9.50;;;20.30;49.50;;;;;;5052089;28;20025;-74
2022/04/14 09:50:39;;;;;;;16.25;7.70;;;20.60;48.00;;;;;;5052358;28;20041;-74
2022/04/14 09:53:08;;;;;;;17.67;8.10;;;20.70;47.30;;;;;;5052446;28;20029;-73
2022/04/14 09:55:35;;;;;;;16.80;8.48;;;21.00;45.30;;;;;;5052307;28;20387;-75
2022/04/14 09:58:18;;;;;;;20.20;9.18;;;21.10;44.50;;;;;;5057921;28;20390;-76
2022/04/14 10:00:43;;;;;;;17.00;8.38;;;21.10;43.30;;;;;;5053103;28;20115;-74
2022/04/14 10:03:21;;;;;;;19.92;6.93;;;21.30;44.30;;;;;;5053182;28;20100;-72
2022/04/14 10:05:49;;;;;;;14.07;7.82;;;21.40;44.80;;;;;;5053070;28;20498;-72
2022/04/14 10:08:15;;;;;;;14.88;7.60;;;21.50;42.60;;;;;;5053393;28;20033;-74
2022/04/14 10:10:43;;;;;;;15.68;7.30;;;21.70;43.40;;;;;;5053259;28;20033;-73
2022/04/14 10:13:16;;;;;;;14.52;6.55;;;21.80;42.00;;;;;;5053250;28;20025;-74
2022/04/14 10:15:44;;;;;;;9.55;6.20;;;22.00;42.40;;;;;;5053196;28;20039;-74
2022/04/14 10:18:17;;;;;;;19.25;8.93;;;22.20;41.80;;;;;;5053091;28;20386;-74
2022/04/14 10:20:44;;;;;;;17.40;9.73;;;22.20;40.60;;;;;;5053025;28;20440;-74
2022/04/14 10:23:13;;;;;;;16.92;8.48;;;22.00;41.30;;;;;;5052997;28;20096;-74
2022/04/14 10:25:40;;;;;;;15.20;7.15;;;21.70;43.30;;;;;;5052811;28;20383;-74
2022/04/14 10:28:13;;;;;;;13.30;7.40;;;21.80;43.40;;;;;;5053057;28;20025;-74
2022/04/14 10:30:40;;;;;;;11.15;6.50;;;22.00;43.80;;;;;;5052553;28;20450;-74
2022/04/14 10:33:05;;;;;;;19.25;8.32;;;22.20;43.10;;;;;;5052230;28;20017;-75
2022/04/14 10:35:31;;;;;;;13.52;8.05;;;22.40;42.60;;;;;;5052719;28;20098;-75
2022/04/14 10:38:34;;;;;;;22.90;8.27;;;22.30;43.60;;;;;;5052699;28;20380;-75
2022/04/14 10:41:02;;;;;;;17.67;7.15;;;22.50;42.70;;;;;;5052667;28;20032;-74
2022/04/14 10:43:29;;;;;;;12.43;6.13;;;22.80;43.10;;;;;;5052554;28;20360;-74
2022/04/14 10:45:56;;;;;;;10.23;5.28;;;23.10;42.30;;;;;;5052926;28;20483;-73
2022/04/14 10:48:30;;;;;;;15.05;7.10;;;23.50;41.70;;;;;;5052513;28;20454;-73
2022/04/14 10:51:15;;;;;;;14.07;6.25;;;23.70;40.70;;;;;;5052386;28;20037;-73
2022/04/14 10:53:49;;;;;;;14.88;6.63;;;23.90;39.70;;;;;;5052794;28;20471;-73
2022/04/14 10:56:44;;;;;;;14.35;7.32;;;24.10;38.30;;;;;;5052679;28;20075;-73
2022/04/14 10:59:31;;;;;;;14.65;5.60;;;24.10;38.20;;;;;;5052623;28;20029;-73
2022/04/14 11:02:02;;;;;;;10.70;5.82;;;24.30;37.90;;;;;;5051415;28;20033;-73
2022/04/14 11:04:42;;;;;;;16.25;6.70;;;24.50;37.30;;;;;;5052284;28;20017;-74
2022/04/14 11:07:22;;;;;;;18.20;6.82;;;24.40;37.90;;;;;;5051227;28;20313;-73
2022/04/14 11:09:57;;;;;;;16.95;6.72;;;24.20;36.70;;;;;;5052386;28;20025;-74
2022/04/14 11:12:50;;;;;;;12.18;4.78;;;23.90;37.10;;;;;;5052550;28;20112;-73
2022/04/14 11:15:32;;;;;;;10.55;4.72;;;24.20;37.00;;;;;;5052228;28;20025;-74
2022/04/14 11:18:07;;;;;;;13.88;5.80;;;24.60;35.90;;;;;;5052466;28;20025;-74
2022/04/14 11:20:44;;;;;;;16.98;6.18;;;24.90;33.80;;;;;;5052171;28;20383;-73
2022/04/14 11:23:12;;;;;;;9.02;4.28;;;24.80;34.10;;;;;;5052557;28;20029;-74
2022/04/14 11:25:42;;;;;;;15.13;5.15;;;25.00;34.80;;;;;;5052260;28;20440;-74
2022/04/14 11:28:27;;;;;;;8.90;3.90;;;25.20;31.60;;;;;;5052082;28;20028;-74
2022/04/14 11:31:19;;;;;;;9.32;4.40;;;25.20;30.50;;;;;;5051880;28;20061;-74
2022/04/14 11:33:46;;;;;;;9.93;3.85;;;25.20;30.30;;;;;;5043024;28;20033;-74
2022/04/14 11:36:13;;;;;;;11.88;3.63;;;25.20;30.90;;;;;;5052201;28;20021;-74
2022/04/14 11:38:50;;;;;;;12.98;4.03;;;25.30;31.30;;;;;;5051973;28;20033;-74
2022/04/14 11:41:40;;;;;;;16.88;4.60;;;25.60;30.50;;;;;;5052127;28;20029;-74
2022/04/14 11:44:12;;;;;;;12.18;4.95;;;25.30;31.10;;;;;;5052892;28;20025;-74
2022/04/14 11:46:49;;;;;;;15.23;4.40;;;25.20;31.00;;;;;;5056161;28;20025;-75
2022/04/14 11:49:23;;;;;;;12.40;4.70;;;24.80;32.20;;;;;;5056091;28;20051;-74
2022/04/14 11:51:53;;;;;;;15.88;5.22;;;24.30;33.00;;;;;;5055913;28;20025;-74
2022/04/14 11:54:30;;;;;;;14.43;5.57;;;24.20;33.10;;;;;;5055779;28;20047;-74
2022/04/14 11:57:01;;;;;;;12.25;5.15;;;24.30;33.80;;;;;;5055757;28;20028;-74
2022/04/14 11:59:30;;;;;;;9.18;4.43;;;24.40;33.60;;;;;;5055432;28;20355;-77
2022/04/14 12:02:00;;;;;;;14.35;4.10;;;24.70;33.10;;;;;;5055847;28;20075;-74
2022/04/14 12:04:26;;;;;;;9.55;4.80;;;24.70;32.50;;;;;;5055652;28;20037;-75
2022/04/14 12:06:56;;;;;;;10.73;4.32;;;24.80;33.10;;;;;;5056372;28;20025;-76
2022/04/14 12:09:24;;;;;;;10.50;4.13;;;24.80;32.50;;;;;;5065930;28;20029;-76
2022/04/14 12:11:50;;;;;;;7.32;3.53;;;25.40;33.00;;;;;;5074961;28;20025;-77
2022/04/14 12:14:16;;;;;;;8.82;4.00;;;25.90;30.20;;;;;;5068464;28;20028;-78
2022/04/14 12:16:52;;;;;;;12.32;4.20;;;26.40;29.50;;;;;;5063108;28;20032;-76
2022/04/14 12:19:21;;;;;;;32.60;5.38;;;26.70;28.90;;;;;;5071795;28;20028;-76
2022/04/14 12:22:04;;;;;;;9.73;3.97;;;26.40;29.00;;;;;;5075034;28;20128;-78
2022/04/14 12:24:30;;;;;;;13.20;5.72;;;26.50;28.10;;;;;;5067477;28;20021;-79
2022/04/14 12:26:58;;;;;;;11.57;4.18;;;26.70;28.20;;;;;;5055835;28;20101;-76
2022/04/14 12:29:24;;;;;;;8.23;3.47;;;26.60;28.10;;;;;;5055338;28;20044;-78
2022/04/14 12:31:55;;;;;;;11.45;3.85;;;26.70;28.50;;;;;;5055082;28;20479;-78
2022/04/14 12:34:22;;;;;;;9.95;3.63;;;26.70;28.00;;;;;;5053700;28;20027;-77
2022/04/14 12:36:48;;;;;;;11.75;4.00;;;26.80;27.90;;;;;;5055141;28;20467;-77
2022/04/14 12:39:21;;;;;;;14.00;4.13;;;26.70;27.50;;;;;;5054818;28;20032;-77
2022/04/14 12:41:47;;;;;;;8.77;3.15;;;26.40;27.90;;;;;;5054881;28;20487;-77
2022/04/14 12:44:18;;;;;;;8.25;3.58;;;26.20;28.20;;;;;;5055024;28;20043;-77